Terminal Aerodrome Forecast
Issued by NWS

Home | Current Version | Previous Version | Text Only | Print | Product List | Glossary On
Versions: 1 2 3 4 5 6 7 8 9 10 11 12
000
FTUS45 KTFX 181700
TAFCTB
TAF
KCTB 181728Z 1818/1918 24011KT P6SM VCSH BKN040
     FM182000 25015G28KT P6SM SCT060 BKN150
     FM190200 25011KT P6SM BKN150
     FM191500 27014G24KT P6SM BKN250=

USA.gov is the U.S. government's official web portal to all federal, state and local government web resources and services.